Time;durP1;ratioP1;P1;durP2;ratioP2;P2;SDS_P1;SDS_P2;PMS_P1;PMS_P2;Temp;Humidity;BMP_temperature;BMP_pressure;BME280_temperature;BME280_humidity;BME280_pressure;Samples;Min_cycle;Max_cycle;Signal;HPM_P1;HPM_P2
2022/09/07 00:01:23;;;;;;;5.22;3.38;;;;;;;18.22;100.00;96594.81;5076609;28;20230;-53
2022/09/07 00:03:50;;;;;;;6.10;3.53;;;;;;;18.16;100.00;96590.25;5070067;28;20607;-53
2022/09/07 00:06:17;;;;;;;4.18;2.90;;;;;;;18.18;100.00;96582.00;5057489;28;20199;-51
2022/09/07 00:08:43;;;;;;;3.63;3.00;;;;;;;18.18;100.00;96588.19;5062106;28;20237;-54
2022/09/07 00:11:16;;;;;;;4.55;3.42;;;;;;;18.17;100.00;96593.75;5062653;28;20199;-52
2022/09/07 00:13:46;;;;;;;6.53;3.40;;;;;;;18.17;100.00;96583.06;5056627;28;20242;-52
2022/09/07 00:16:15;;;;;;;4.70;3.22;;;;;;;18.16;100.00;96579.53;5057505;28;20257;-49
2022/09/07 00:18:42;;;;;;;5.72;3.20;;;;;;;18.16;100.00;96578.72;5056819;28;20239;-50
2022/09/07 00:21:10;;;;;;;3.97;2.80;;;;;;;18.16;100.00;96584.91;5056475;28;20245;-51
2022/09/07 00:23:38;;;;;;;7.60;3.50;;;;;;;18.20;100.00;96596.03;5056270;28;20243;-52
2022/09/07 00:26:07;;;;;;;6.78;3.20;;;;;;;18.18;100.00;96600.75;5056110;28;20246;-52
2022/09/07 00:28:36;;;;;;;4.82;3.10;;;;;;;18.20;100.00;96607.59;5056698;28;20235;-51
2022/09/07 00:31:03;;;;;;;5.72;3.75;;;;;;;18.23;100.00;96611.72;5056174;28;20253;-51
2022/09/07 00:33:30;;;;;;;5.75;3.30;;;;;;;18.19;100.00;96600.56;5056455;28;20647;-50
2022/09/07 00:35:58;;;;;;;7.25;2.78;;;;;;;18.18;100.00;96604.25;5056601;28;20234;-54
2022/09/07 00:38:25;;;;;;;6.47;3.13;;;;;;;18.21;100.00;96603.06;5056187;28;20215;-52
2022/09/07 00:40:53;;;;;;;4.38;2.80;;;;;;;18.20;100.00;96590.69;5075266;28;20229;-51
2022/09/07 00:43:33;;;;;;;4.25;3.17;;;;;;;18.20;100.00;96585.34;5075754;28;20257;-52
2022/09/07 00:46:01;;;;;;;7.18;3.60;;;;;;;18.21;100.00;96578.97;5066565;28;20199;-54
2022/09/07 00:48:32;;;;;;;6.15;3.47;;;;;;;18.21;100.00;96593.16;5056578;28;20615;-51
2022/09/07 00:51:02;;;;;;;3.55;3.35;;;;;;;18.23;100.00;96587.63;5056148;28;20207;-53
2022/09/07 00:53:31;;;;;;;4.53;3.50;;;;;;;18.19;100.00;96587.19;5055811;28;20234;-52
2022/09/07 00:56:01;;;;;;;4.63;3.15;;;;;;;18.19;100.00;96581.81;5064369;28;20206;-53
2022/09/07 00:58:30;;;;;;;4.65;3.22;;;;;;;18.18;100.00;96587.34;5062330;28;20211;-52
2022/09/07 01:00:56;;;;;;;6.15;3.42;;;;;;;18.17;100.00;96585.72;5076169;28;20596;-51
2022/09/07 01:03:27;;;;;;;5.50;3.55;;;;;;;18.15;100.00;96598.44;5074509;28;20222;-53
2022/09/07 01:05:58;;;;;;;3.65;2.95;;;;;;;18.13;100.00;96595.97;5066605;28;20284;-51
2022/09/07 01:08:26;;;;;;;4.43;3.10;;;;;;;18.13;100.00;96600.50;5056163;28;20532;-53
2022/09/07 01:10:53;;;;;;;7.47;3.10;;;;;;;18.04;100.00;96593.59;5055742;28;20249;-53
2022/09/07 01:13:19;;;;;;;4.38;3.13;;;;;;;18.01;100.00;96588.63;5054904;28;20359;-52
2022/09/07 01:15:53;;;;;;;3.45;3.20;;;;;;;17.96;100.00;96577.69;5055651;28;20246;-51
2022/09/07 01:18:27;;;;;;;5.53;3.10;;;;;;;17.97;100.00;96580.16;5056079;28;20207;-53
2022/09/07 01:21:19;;;;;;;5.88;3.30;;;;;;;17.96;100.00;96583.03;5055440;28;20264;-53
2022/09/07 01:24:33;;;;;;;4.18;3.40;;;;;;;17.92;100.00;96587.13;5055633;28;20259;-51
2022/09/07 01:27:30;;;;;;;6.65;3.15;;;;;;;17.85;100.00;96587.84;5009768;28;20636;-52
2022/09/07 01:30:03;;;;;;;4.32;3.20;;;;;;;17.81;100.00;96583.94;5055653;28;20199;-53
2022/09/07 01:32:41;;;;;;;3.63;2.92;;;;;;;17.85;100.00;96595.88;5055096;28;20199;-52
2022/09/07 01:35:12;;;;;;;4.95;3.03;;;;;;;17.78;100.00;96589.63;5058196;28;20203;-52
2022/09/07 01:37:43;;;;;;;3.90;3.20;;;;;;;17.72;100.00;96582.38;5069869;28;20260;-53
2022/09/07 01:40:14;;;;;;;3.45;3.15;;;;;;;17.70;100.00;96589.75;5073053;28;20203;-52
2022/09/07 01:42:48;;;;;;;6.00;2.90;;;;;;;17.68;100.00;96591.78;5073136;28;20668;-50
2022/09/07 01:45:17;;;;;;;7.95;3.20;;;;;;;17.63;100.00;96594.22;5059326;28;20214;-52
2022/09/07 01:47:47;;;;;;;6.53;3.38;;;;;;;17.60;100.00;96589.25;5061396;28;20237;-53
2022/09/07 01:50:17;;;;;;;5.40;3.08;;;;;;;17.56;100.00;96582.59;5060909;28;20206;-52
2022/09/07 01:52:51;;;;;;;5.70;3.38;;;;;;;17.55;100.00;96582.75;5055186;28;20215;-52
2022/09/07 01:55:22;;;;;;;6.82;3.35;;;;;;;17.51;100.00;96590.31;5054867;28;20656;-52
2022/09/07 01:57:55;;;;;;;3.35;2.80;;;;;;;17.47;100.00;96588.19;5063936;28;20253;-52
2022/09/07 02:00:22;;;;;;;5.63;3.53;;;;;;;17.56;100.00;96598.66;5054893;28;20238;-53
2022/09/07 02:02:51;;;;;;;8.98;3.13;;;;;;;17.52;100.00;96607.19;5062838;28;20261;-53
2022/09/07 02:05:21;;;;;;;8.13;3.70;;;;;;;17.49;100.00;96603.06;5058338;28;20207;-52
2022/09/07 02:07:50;;;;;;;5.80;3.40;;;;;;;17.48;100.00;96612.09;5054629;28;20206;-52
2022/09/07 02:10:19;;;;;;;7.78;3.70;;;;;;;17.48;100.00;96604.06;5057003;28;20256;-53
2022/09/07 02:12:48;;;;;;;9.50;3.55;;;;;;;17.50;100.00;96603.88;5074156;28;20263;-52
2022/09/07 02:15:21;;;;;;;5.32;3.78;;;;;;;17.50;100.00;96601.22;5062166;28;20195;-52
2022/09/07 02:17:50;;;;;;;4.97;3.45;;;;;;;17.52;100.00;96591.16;5054299;28;20252;-53
2022/09/07 02:20:20;;;;;;;4.30;3.33;;;;;;;17.54;100.00;96597.13;5054349;28;20612;-53
2022/09/07 02:22:50;;;;;;;6.68;3.38;;;;;;;17.55;100.00;96612.16;5054603;28;20223;-53
2022/09/07 02:25:22;;;;;;;3.58;3.33;;;;;;;17.54;100.00;96623.84;5059817;28;20215;-51
2022/09/07 02:27:53;;;;;;;6.65;4.07;;;;;;;17.52;100.00;96600.00;5054501;28;20233;-51
2022/09/07 02:30:21;;;;;;;5.05;3.42;;;;;;;17.57;100.00;96610.97;5054561;28;20202;-52
2022/09/07 02:32:48;;;;;;;4.05;3.58;;;;;;;17.57;100.00;96610.19;5053852;28;20246;-53
2022/09/07 02:35:15;;;;;;;6.13;3.47;;;;;;;17.58;100.00;96611.81;5058378;28;20261;-52
2022/09/07 02:37:44;;;;;;;8.57;4.10;;;;;;;17.59;100.00;96611.63;5054562;28;20207;-52
2022/09/07 02:40:13;;;;;;;4.63;3.70;;;;;;;17.62;100.00;96613.94;5053605;28;20269;-53
2022/09/07 02:42:42;;;;;;;3.85;3.58;;;;;;;17.64;100.00;96616.44;5054606;28;20233;-53
2022/09/07 02:45:10;;;;;;;5.80;3.80;;;;;;;17.68;100.00;96618.53;5061904;28;20207;-52
2022/09/07 02:47:50;;;;;;;6.93;4.00;;;;;;;17.70;100.00;96616.50;5054250;28;20688;-53
2022/09/07 02:50:42;;;;;;;5.15;4.22;;;;;;;17.69;100.00;96609.50;5053899;28;20207;-52
2022/09/07 02:53:21;;;;;;;4.40;4.00;;;;;;;17.72;100.00;96603.75;5055808;28;20199;-52
2022/09/07 02:55:54;;;;;;;5.93;3.78;;;;;;;17.69;100.00;96612.16;5062534;28;20206;-51
2022/09/07 02:58:29;;;;;;;6.13;3.92;;;;;;;17.66;100.00;96603.69;5088238;28;20190;-52
2022/09/07 03:01:01;;;;;;;6.32;4.10;;;;;;;17.64;100.00;96609.22;5056241;28;20202;-52
2022/09/07 03:03:38;;;;;;;3.95;3.65;;;;;;;17.61;100.00;96606.91;5066194;28;20210;-52
2022/09/07 03:06:07;;;;;;;5.68;3.92;;;;;;;17.61;100.00;96609.59;5056306;28;20234;-52
2022/09/07 03:08:38;;;;;;;4.20;3.80;;;;;;;17.58;100.00;96601.94;5059258;28;20285;-51
2022/09/07 03:11:05;;;;;;;6.00;3.50;;;;;;;17.56;100.00;96604.00;5053816;28;20200;-51
2022/09/07 03:13:32;;;;;;;3.78;3.38;;;;;;;17.54;100.00;96608.66;5055855;28;20312;-54
2022/09/07 03:16:03;;;;;;;6.03;3.67;;;;;;;17.57;100.00;96610.19;5056062;28;20218;-52
2022/09/07 03:18:31;;;;;;;7.15;3.88;;;;;;;17.59;100.00;96608.97;5055065;28;20203;-52
2022/09/07 03:20:58;;;;;;;4.57;4.05;;;;;;;17.59;100.00;96598.25;5054561;28;20203;-52
2022/09/07 03:23:26;;;;;;;4.80;3.70;;;;;;;17.58;100.00;96601.13;5054288;28;20227;-53
2022/09/07 03:25:53;;;;;;;4.93;3.92;;;;;;;17.58;100.00;96611.81;5054677;28;20242;-51
2022/09/07 03:28:19;;;;;;;6.15;4.28;;;;;;;17.58;100.00;96611.81;5053907;28;20290;-52
2022/09/07 03:30:47;;;;;;;4.53;4.13;;;;;;;17.59;100.00;96608.97;5054144;28;20242;-52
2022/09/07 03:33:14;;;;;;;4.57;4.10;;;;;;;17.62;100.00;96608.59;5053808;28;20612;-52
2022/09/07 03:35:45;;;;;;;7.38;4.55;;;;;;;17.63;100.00;96612.09;5053985;28;20218;-50
2022/09/07 03:38:13;;;;;;;4.90;4.38;;;;;;;17.66;100.00;96614.38;5056963;28;20199;-51
2022/09/07 03:40:39;;;;;;;5.50;4.13;;;;;;;17.69;100.00;96614.00;5057192;28;20253;-51
2022/09/07 03:43:09;;;;;;;4.85;4.35;;;;;;;17.71;100.00;96620.00;5057557;28;20262;-51
2022/09/07 03:45:35;;;;;;;4.85;4.38;;;;;;;17.74;100.00;96619.63;5063137;28;20211;-52
2022/09/07 03:48:02;;;;;;;5.13;4.05;;;;;;;17.74;100.00;96609.78;5057641;28;20235;-51
2022/09/07 03:50:30;;;;;;;3.83;3.47;;;;;;;17.76;100.00;96623.78;5057669;28;20261;-50
2022/09/07 03:53:01;;;;;;;4.97;3.95;;;;;;;17.77;100.00;96622.75;5057780;28;20218;-52
2022/09/07 03:55:27;;;;;;;5.43;4.57;;;;;;;17.77;100.00;96628.13;5076790;28;20274;-53
2022/09/07 03:57:54;;;;;;;5.95;4.53;;;;;;;17.78;100.00;96629.75;5098142;28;20199;-53
2022/09/07 04:00:21;;;;;;;9.48;4.53;;;;;;;17.79;100.00;96630.59;5095180;28;20218;-53
2022/09/07 04:02:48;;;;;;;8.30;4.13;;;;;;;17.77;100.00;96636.13;5088210;28;20215;-51
2022/09/07 04:05:15;;;;;;;5.90;4.03;;;;;;;17.78;100.00;96629.75;5061109;28;20271;-51
2022/09/07 04:07:41;;;;;;;5.38;4.13;;;;;;;17.78;100.00;96629.75;5057806;28;20210;-50
2022/09/07 04:10:10;;;;;;;4.38;3.97;;;;;;;17.76;100.00;96626.44;5057349;28;20583;-52
2022/09/07 04:12:39;;;;;;;4.47;4.07;;;;;;;17.76;100.00;96637.16;5057265;28;20218;-51
2022/09/07 04:15:07;;;;;;;5.90;4.25;;;;;;;17.75;100.00;96632.81;5056794;28;20235;-52
2022/09/07 04:17:34;;;;;;;6.85;4.20;;;;;;;17.73;100.00;96637.53;5055971;28;20210;-52
2022/09/07 04:20:03;;;;;;;5.80;4.30;;;;;;;17.72;100.00;96627.84;5055712;28;20249;-50
2022/09/07 04:22:31;;;;;;;7.32;4.35;;;;;;;17.71;100.00;96634.19;5056761;28;20211;-52
2022/09/07 04:24:58;;;;;;;5.70;4.82;;;;;;;17.75;100.00;96635.47;5063895;28;20211;-52
2022/09/07 04:27:26;;;;;;;4.22;3.80;;;;;;;17.76;100.00;96637.16;5076356;28;20195;-52
2022/09/07 04:29:53;;;;;;;5.30;3.90;;;;;;;17.77;100.00;96628.13;5082288;28;20203;-52
2022/09/07 04:32:20;;;;;;;7.70;3.80;;;;;;;17.76;100.00;96625.63;5060642;28;20214;-52
2022/09/07 04:34:47;;;;;;;5.18;3.90;;;;;;;17.76;100.00;96629.13;5061049;28;20261;-52
2022/09/07 04:37:15;;;;;;;6.13;4.10;;;;;;;17.75;100.00;96632.81;5056809;28;20588;-51
2022/09/07 04:39:42;;;;;;;4.28;3.88;;;;;;;17.76;100.00;96630.97;5057876;28;20261;-50
2022/09/07 04:42:09;;;;;;;6.45;4.20;;;;;;;17.72;100.00;96635.03;5056508;28;20215;-50
2022/09/07 04:44:38;;;;;;;5.13;4.00;;;;;;;17.72;100.00;96622.47;5063034;28;20226;-53
2022/09/07 04:47:05;;;;;;;4.85;3.97;;;;;;;17.69;100.00;96628.22;5056870;28;20234;-51
2022/09/07 04:49:31;;;;;;;6.18;4.20;;;;;;;17.66;100.00;96631.28;5059668;28;20294;-51
2022/09/07 04:51:59;;;;;;;6.22;4.18;;;;;;;17.63;100.00;96637.00;5057962;28;20847;-50
2022/09/07 04:54:26;;;;;;;5.38;4.05;;;;;;;17.63;100.00;96641.50;5056291;28;20235;-52
2022/09/07 04:56:53;;;;;;;5.03;3.90;;;;;;;17.63;100.00;96641.50;5068021;28;20202;-51
2022/09/07 04:59:21;;;;;;;4.32;3.92;;;;;;;17.61;100.00;96644.34;5060078;28;20635;-52
2022/09/07 05:01:52;;;;;;;6.03;4.00;;;;;;;17.62;100.00;96634.50;5066714;28;20707;-51
2022/09/07 05:04:19;;;;;;;4.40;4.00;;;;;;;17.60;100.00;96645.41;5056202;28;20234;-50
2022/09/07 05:06:46;;;;;;;6.82;4.40;;;;;;;17.57;100.00;96643.06;5072863;28;20210;-52
2022/09/07 05:09:13;;;;;;;4.50;4.10;;;;;;;17.54;100.00;96647.94;5078300;28;20203;-53
2022/09/07 05:11:42;;;;;;;4.15;3.72;;;;;;;17.52;100.00;96644.63;5076347;28;20233;-52
2022/09/07 05:14:10;;;;;;;5.07;3.55;;;;;;;17.50;100.00;96652.81;5056272;28;20289;-51
2022/09/07 05:16:36;;;;;;;7.70;3.97;;;;;;;17.45;100.00;96657.91;5055088;28;20247;-52
2022/09/07 05:19:06;;;;;;;3.50;3.20;;;;;;;17.48;100.00;96649.50;5055922;28;20253;-51
2022/09/07 05:21:35;;;;;;;6.40;3.63;;;;;;;17.42;100.00;96658.28;5055723;28;20196;-50
2022/09/07 05:24:03;;;;;;;7.07;4.00;;;;;;;17.41;100.00;96665.47;5055332;28;20262;-50
2022/09/07 05:26:31;;;;;;;5.07;3.55;;;;;;;17.38;100.00;96660.50;5055865;28;20206;-50
2022/09/07 05:29:01;;;;;;;5.05;3.70;;;;;;;17.36;100.00;96656.31;5055500;28;20635;-51
2022/09/07 05:31:28;;;;;;;4.53;3.85;;;;;;;17.37;100.00;96666.00;5056102;28;20203;-50
2022/09/07 05:33:56;;;;;;;7.28;3.97;;;;;;;17.39;100.00;96666.69;5055542;28;20239;-49
2022/09/07 05:36:28;;;;;;;3.83;3.53;;;;;;;17.39;100.00;96669.34;5056447;28;20206;-51
2022/09/07 05:38:57;;;;;;;4.82;3.50;;;;;;;17.32;100.00;96671.09;5058111;28;20636;-49
2022/09/07 05:41:25;;;;;;;5.95;3.70;;;;;;;17.40;100.00;96673.66;5059544;28;20532;-49
2022/09/07 05:43:53;;;;;;;5.22;3.10;;;;;;;17.41;100.00;96667.31;5056992;28;20238;-50
2022/09/07 05:46:20;;;;;;;5.28;3.70;;;;;;;17.40;100.00;96671.00;5056207;28;20690;-49
2022/09/07 05:48:47;;;;;;;4.03;3.72;;;;;;;17.38;100.00;96663.16;5055532;28;20242;-50
2022/09/07 05:51:14;;;;;;;4.10;3.53;;;;;;;17.38;100.00;96663.16;5060466;28;20701;-48
2022/09/07 05:53:46;;;;;;;3.95;3.58;;;;;;;17.36;100.00;96656.31;5055438;28;20203;-49
2022/09/07 05:56:13;;;;;;;4.47;3.50;;;;;;;17.42;100.00;96651.09;5061374;28;20289;-51
2022/09/07 05:58:39;;;;;;;5.32;3.50;;;;;;;17.43;100.00;96649.22;5061632;28;20640;-50
2022/09/07 06:01:08;;;;;;;3.55;3.25;;;;;;;17.48;100.00;96648.69;5056121;28;20681;-50
2022/09/07 06:03:36;;;;;;;5.53;3.20;;;;;;;17.65;100.00;96644.81;5065552;28;20555;-49
2022/09/07 06:06:05;;;;;;;6.38;3.50;;;;;;;18.23;100.00;96641.16;5054304;28;20207;-50
2022/09/07 06:08:33;;;;;;;5.72;3.38;;;;;;;19.26;100.00;96652.16;5055730;28;20206;-50
2022/09/07 06:11:05;;;;;;;7.03;3.67;;;;;;;20.16;100.00;96655.47;5056587;28;20210;-49
2022/09/07 06:13:34;;;;;;;5.53;3.08;;;;;;;20.69;100.00;96664.47;5057479;28;20235;-49
2022/09/07 06:16:01;;;;;;;5.22;3.08;;;;;;;21.06;100.00;96665.75;5065218;28;20226;-50
2022/09/07 06:18:30;;;;;;;7.20;3.00;;;;;;;21.58;100.00;96655.94;5059319;28;20210;-49
2022/09/07 06:21:04;;;;;;;3.25;2.83;;;;;;;21.45;97.80;96667.59;5059904;28;20219;-51
2022/09/07 06:23:31;;;;;;;5.65;2.95;;;;;;;20.98;100.00;96665.09;5059895;28;20215;-50
2022/09/07 06:25:58;;;;;;;3.38;3.05;;;;;;;20.69;100.00;96671.75;5058786;28;20588;-51
2022/09/07 06:28:30;;;;;;;7.13;3.20;;;;;;;20.60;100.00;96678.31;5055784;28;20207;-50
2022/09/07 06:31:00;;;;;;;9.10;3.28;;;;;;;20.38;100.00;96674.97;5056369;28;20223;-49
2022/09/07 06:33:27;;;;;;;3.50;3.28;;;;;;;20.16;100.00;96671.56;5054360;28;20515;-50
2022/09/07 06:35:58;;;;;;;5.28;3.10;;;;;;;19.83;100.00;96671.47;5055097;28;20230;-50
2022/09/07 06:38:25;;;;;;;5.05;3.15;;;;;;;19.71;100.00;96670.38;5059782;28;20224;-49
2022/09/07 06:40:52;;;;;;;5.03;3.45;;;;;;;19.62;100.00;96673.44;5055133;28;20203;-49
2022/09/07 06:43:19;;;;;;;5.03;3.25;;;;;;;19.82;100.00;96669.81;5056677;28;20578;-50
2022/09/07 06:45:53;;;;;;;3.28;3.05;;;;;;;20.26;100.00;96672.00;5058086;28;20210;-50
2022/09/07 06:48:20;;;;;;;5.72;3.35;;;;;;;20.16;100.00;96671.56;5060946;28;20738;-50
2022/09/07 06:50:55;;;;;;;3.92;3.50;;;;;;;20.16;100.00;96668.06;5054829;28;20288;-51
2022/09/07 06:53:22;;;;;;;7.43;4.40;;;;;;;20.44;100.00;96666.09;5068405;28;20241;-49
2022/09/07 06:55:49;;;;;;;5.43;4.47;;;;;;;20.60;100.00;96654.97;5057381;28;20230;-49
2022/09/07 06:58:16;;;;;;;5.97;4.03;;;;;;;20.70;100.00;96668.84;5057416;28;20276;-49
2022/09/07 07:00:42;;;;;;;4.40;3.70;;;;;;;20.85;100.00;96669.47;5063018;28;20230;-49
2022/09/07 07:03:11;;;;;;;7.00;4.38;;;;;;;20.89;100.00;96671.75;5066291;28;20249;-50
2022/09/07 07:05:39;;;;;;;5.07;3.50;;;;;;;20.92;100.00;96665.94;5055619;28;20647;-50
2022/09/07 07:08:06;;;;;;;4.90;3.28;;;;;;;20.79;100.00;96662.25;5067958;28;20206;-50
2022/09/07 07:10:37;;;;;;;5.80;3.33;;;;;;;20.67;100.00;96679.16;5064235;28;20317;-50
2022/09/07 07:13:04;;;;;;;6.35;3.40;;;;;;;20.65;100.00;96670.50;5061512;28;20307;-49
2022/09/07 07:15:31;;;;;;;4.88;3.70;;;;;;;20.58;100.00;96675.84;5068706;28;20265;-50
2022/09/07 07:17:59;;;;;;;4.10;3.17;;;;;;;20.57;100.00;96678.75;5071658;28;20223;-50
2022/09/07 07:20:28;;;;;;;3.55;3.25;;;;;;;20.52;100.00;96673.97;5063120;28;20302;-49
2022/09/07 07:22:56;;;;;;;4.50;3.40;;;;;;;20.51;100.00;96683.06;5067198;28;20210;-51
2022/09/07 07:25:23;;;;;;;4.18;2.75;;;;;;;20.57;100.00;96673.38;5068556;28;20215;-50
2022/09/07 07:27:50;;;;;;;3.25;2.45;;;;;;;20.62;100.00;96679.78;5068895;28;20207;-50
2022/09/07 07:30:18;;;;;;;4.10;2.70;;;;;;;20.62;100.00;96681.63;5074096;28;20206;-50
2022/09/07 07:32:45;;;;;;;7.47;2.50;;;;;;;20.80;100.00;96682.69;5081357;28;20210;-51
2022/09/07 07:35:15;;;;;;;5.07;3.17;;;;;;;21.03;100.00;96684.97;5079613;28;20210;-50
2022/09/07 07:37:45;;;;;;;3.22;2.70;;;;;;;21.34;100.00;96695.94;5079417;28;20259;-50
2022/09/07 07:40:13;;;;;;;4.00;2.58;;;;;;;21.52;100.00;96689.91;5078667;28;20241;-50
2022/09/07 07:42:41;;;;;;;5.85;2.60;;;;;;;21.62;100.00;96701.06;5096285;28;20216;-51
2022/09/07 07:45:10;;;;;;;2.90;2.60;;;;;;;21.78;100.00;96699.81;5079990;28;20231;-51
2022/09/07 07:47:37;;;;;;;4.47;2.47;;;;;;;21.93;100.00;96702.28;5094444;28;20202;-50
2022/09/07 07:50:05;;;;;;;2.75;2.15;;;;;;;22.10;100.00;96703.44;5080722;28;20617;-50
2022/09/07 07:52:35;;;;;;;5.22;2.22;;;;;;;22.25;99.15;96696.72;5076056;28;20237;-51
2022/09/07 07:55:07;;;;;;;2.03;1.83;;;;;;;22.46;95.66;96692.88;5076857;28;20622;-50
2022/09/07 07:57:34;;;;;;;4.28;2.33;;;;;;;22.63;97.58;96687.84;5064878;28;20203;-51
2022/09/07 08:00:00;;;;;;;2.83;2.22;;;;;;;22.74;95.99;96679.88;5070440;28;20206;-50
2022/09/07 08:02:29;;;;;;;4.70;2.45;;;;;;;22.93;96.22;96677.25;5075528;28;20553;-49
2022/09/07 08:04:56;;;;;;;2.45;1.88;;;;;;;23.04;94.48;96679.25;5070008;28;20563;-51
2022/09/07 08:07:22;;;;;;;3.95;2.20;;;;;;;23.00;90.13;96678.03;5059333;28;20705;-50
2022/09/07 08:09:49;;;;;;;3.00;1.90;;;;;;;23.07;90.47;96678.81;5058383;28;20231;-49
2022/09/07 08:12:20;;;;;;;2.60;2.05;;;;;;;23.14;90.44;96674.19;5056950;28;20222;-51
2022/09/07 08:14:48;;;;;;;4.13;2.33;;;;;;;23.23;90.32;96678.28;5056760;28;20231;-50
2022/09/07 08:17:16;;;;;;;5.38;2.08;;;;;;;23.41;89.82;96680.19;5057751;28;20656;-50
2022/09/07 08:19:44;;;;;;;4.90;2.05;;;;;;;23.55;85.41;96671.75;5056491;28;20250;-51
2022/09/07 08:22:12;;;;;;;4.70;2.30;;;;;;;23.54;83.70;96678.19;5057037;28;20231;-52
2022/09/07 08:24:39;;;;;;;2.83;1.95;;;;;;;23.53;85.87;96668.44;5056235;28;20255;-50
2022/09/07 08:27:06;;;;;;;6.45;2.38;;;;;;;23.64;87.46;96670.41;5056593;28;20298;-49
2022/09/07 08:29:35;;;;;;;2.88;2.10;;;;;;;23.82;87.71;96666.88;5056840;28;20283;-50
2022/09/07 08:32:03;;;;;;;2.33;1.75;;;;;;;23.99;85.88;96675.19;5061882;28;20233;-51
2022/09/07 08:34:30;;;;;;;5.28;2.45;;;;;;;24.08;83.10;96663.03;5070466;28;20203;-50
2022/09/07 08:36:57;;;;;;;3.45;2.20;;;;;;;24.26;83.73;96668.47;5062412;28;20203;-51
2022/09/07 08:39:24;;;;;;;3.00;1.92;;;;;;;24.43;83.45;96674.03;5056147;28;20294;-52
2022/09/07 08:42:05;;;;;;;4.25;2.20;;;;;;;24.55;81.23;96678.44;5056164;28;20294;-48
2022/09/07 08:44:36;;;;;;;2.88;2.08;;;;;;;24.74;82.99;96680.03;5064283;28;20301;-50
2022/09/07 08:47:08;;;;;;;2.83;2.35;;;;;;;24.87;83.25;96673.63;5067687;28;20203;-49
2022/09/07 08:49:42;;;;;;;4.88;2.10;;;;;;;24.97;81.04;96664.94;5056268;28;20207;-50
2022/09/07 08:52:13;;;;;;;4.25;2.00;;;;;;;25.17;80.21;96668.97;5060965;28;20233;-50
2022/09/07 08:54:42;;;;;;;2.22;1.95;;;;;;;25.37;79.02;96673.19;5060069;28;20191;-49
2022/09/07 08:57:09;;;;;;;4.05;2.00;;;;;;;25.50;77.19;96665.69;5069878;28;20206;-50
2022/09/07 08:59:42;;;;;;;4.55;2.22;;;;;;;25.67;76.25;96655.00;5070656;28;20640;-49
2022/09/07 09:02:13;;;;;;;4.18;2.40;;;;;;;25.49;75.45;96657.78;5057037;28;20293;-51
2022/09/07 09:04:41;;;;;;;3.75;2.20;;;;;;;25.62;74.87;96658.41;5056134;28;20215;-49
2022/09/07 09:07:15;;;;;;;3.28;2.10;;;;;;;25.56;74.71;96648.53;5056252;28;20260;-50
2022/09/07 09:09:53;;;;;;;4.55;2.05;;;;;;;25.86;74.59;96647.53;5057220;28;20202;-51
2022/09/07 09:12:32;;;;;;;5.25;2.47;;;;;;;25.89;72.19;96641.66;5058757;28;20205;-50
2022/09/07 09:15:10;;;;;;;4.40;1.88;;;;;;;25.83;71.66;96643.41;5058739;28;20242;-50
2022/09/07 09:17:40;;;;;;;5.50;2.30;;;;;;;26.12;71.45;96636.16;5065548;28;20236;-50
2022/09/07 09:20:18;;;;;;;2.28;1.75;;;;;;;26.26;69.52;96648.38;5063142;28;20266;-50
2022/09/07 09:22:45;;;;;;;5.20;2.08;;;;;;;26.58;70.31;96644.13;5061028;28;20206;-51
2022/09/07 09:25:19;;;;;;;2.90;1.83;;;;;;;26.75;68.64;96635.22;5057899;28;20715;-51
2022/09/07 09:27:46;;;;;;;4.63;1.95;;;;;;;26.89;67.78;96631.13;5055789;28;20200;-49
2022/09/07 09:30:16;;;;;;;6.85;1.95;;;;;;;26.66;66.29;96635.59;5054971;28;20211;-51
2022/09/07 09:32:44;;;;;;;6.45;2.25;;;;;;;26.77;67.43;96633.88;5055073;28;20282;-51
2022/09/07 09:35:14;;;;;;;4.15;2.08;;;;;;;26.90;69.51;96630.88;5053902;28;20282;-50
2022/09/07 09:37:42;;;;;;;5.80;2.10;;;;;;;26.60;66.99;96636.59;5058556;28;20235;-50
2022/09/07 09:40:19;;;;;;;2.67;1.95;;;;;;;26.47;68.79;96623.31;5074343;28;20206;-51
2022/09/07 09:42:48;;;;;;;3.70;1.77;;;;;;;26.73;67.58;96616.44;5059472;28;20723;-50
2022/09/07 09:45:20;;;;;;;4.80;1.77;;;;;;;26.86;67.62;96609.88;5072915;28;20215;-50
2022/09/07 09:47:50;;;;;;;3.03;2.22;;;;;;;26.81;65.51;96609.78;5062463;28;20198;-49
2022/09/07 09:50:21;;;;;;;6.13;2.47;;;;;;;26.61;67.16;96613.78;5055238;28;20357;-50
2022/09/07 09:52:52;;;;;;;3.53;2.00;;;;;;;26.49;68.09;96602.19;5055072;28;20632;-50
2022/09/07 09:55:25;;;;;;;5.13;2.03;;;;;;;26.33;68.03;96594.84;5068700;28;20195;-50
2022/09/07 09:57:54;;;;;;;4.20;1.98;;;;;;;25.85;67.94;96594.41;5064759;28;20290;-53
2022/09/07 10:00:23;;;;;;;4.57;1.75;;;;;;;25.75;68.68;96582.28;5056315;28;20203;-55
2022/09/07 10:03:06;;;;;;;3.35;2.08;;;;;;;25.53;68.83;96592.13;5064550;28;20688;-54
2022/09/07 10:05:35;;;;;;;4.35;2.20;;;;;;;25.32;70.09;96589.19;5055256;28;20313;-53
2022/09/07 10:08:06;;;;;;;3.58;1.92;;;;;;;25.20;70.31;96589.19;5055318;28;20211;-51
2022/09/07 10:10:33;;;;;;;3.33;1.73;;;;;;;25.08;70.45;96580.25;5054750;28;20286;-52
2022/09/07 10:13:02;;;;;;;4.75;1.90;;;;;;;24.96;72.75;96576.72;5072014;28;20310;-52
2022/09/07 10:15:35;;;;;;;3.58;1.73;;;;;;;24.84;73.78;96570.47;5074833;28;20234;-49
2022/09/07 10:18:04;;;;;;;3.92;1.98;;;;;;;24.77;74.55;96568.66;5054650;28;20242;-52
2022/09/07 10:20:35;;;;;;;4.18;2.47;;;;;;;24.66;72.45;96565.94;5050843;28;20554;-55
2022/09/07 10:23:04;;;;;;;5.00;2.40;;;;;;;24.63;72.56;96564.53;5055786;28;20282;-52
2022/09/07 10:25:33;;;;;;;4.10;1.95;;;;;;;24.65;73.44;96562.44;5076851;28;20305;-54
2022/09/07 10:28:08;;;;;;;4.55;2.08;;;;;;;24.70;73.73;96559.84;5088178;28;20253;-55
2022/09/07 10:30:50;;;;;;;4.07;3.70;;;;;;;24.75;73.65;96554.56;5076958;28;20193;-56
2022/09/07 10:33:20;;;;;;;10.13;9.02;;;;;;;24.73;73.78;96540.44;5070594;28;20245;-56
2022/09/07 10:35:53;;;;;;;6.13;3.70;;;;;;;24.78;74.88;96532.47;5054389;28;20192;-51
2022/09/07 10:38:21;;;;;;;4.13;2.17;;;;;;;24.94;76.47;96524.75;5066085;28;20222;-50
2022/09/07 10:40:54;;;;;;;6.57;2.58;;;;;;;25.20;70.84;96513.41;5065521;28;20214;-53
2022/09/07 10:43:29;;;;;;;5.78;2.10;;;;;;;25.42;69.79;96519.84;5070659;28;20282;-56
2022/09/07 10:46:11;;;;;;;4.72;1.70;;;;;;;25.57;69.94;96509.34;5056553;28;20221;-54
2022/09/07 10:48:42;;;;;;;2.13;1.60;;;;;;;25.64;68.36;96511.91;5059511;28;20245;-53
2022/09/07 10:51:14;;;;;;;4.45;1.98;;;;;;;25.68;68.62;96511.19;5058604;28;20241;-54
2022/09/07 10:53:46;;;;;;;6.18;2.10;;;;;;;25.69;68.13;96502.00;5057949;28;20206;-56
2022/09/07 10:56:17;;;;;;;4.18;1.92;;;;;;;25.65;68.00;96500.81;5077731;28;20203;-55
2022/09/07 10:59:01;;;;;;;2.65;1.67;;;;;;;25.57;68.84;96497.69;5078962;28;20206;-51
2022/09/07 11:01:37;;;;;;;2.75;1.77;;;;;;;25.44;66.62;96493.31;5093356;28;20230;-53
2022/09/07 11:04:22;;;;;;;3.00;2.17;;;;;;;25.35;67.94;96489.38;5084321;28;20234;-53
2022/09/07 11:06:50;;;;;;;2.63;1.88;;;;;;;25.73;68.08;96491.50;5062492;28;20301;-53
2022/09/07 11:09:48;;;;;;;3.80;1.98;;;;;;;26.19;63.71;96488.59;5058437;28;20294;-56
2022/09/07 11:12:17;;;;;;;3.42;1.90;;;;;;;26.49;66.97;96485.56;5058475;28;20291;-55
2022/09/07 11:14:46;;;;;;;4.55;2.40;;;;;;;26.70;63.59;96490.25;5057758;28;20254;-52
2022/09/07 11:17:17;;;;;;;4.40;2.53;;;;;;;26.71;61.62;96485.66;5064435;28;20286;-52
2022/09/07 11:19:50;;;;;;;2.30;1.98;;;;;;;26.59;62.44;96477.59;5067995;28;20225;-50
2022/09/07 11:22:24;;;;;;;4.80;1.90;;;;;;;26.53;65.93;96470.47;5061909;28;20289;-50
2022/09/07 11:24:55;;;;;;;5.07;2.45;;;;;;;26.53;61.84;96480.47;5057487;28;20285;-49
2022/09/07 11:27:26;;;;;;;5.55;2.03;;;;;;;26.65;62.49;96467.63;5057688;28;20207;-49
2022/09/07 11:29:57;;;;;;;4.35;1.85;;;;;;;27.07;60.93;96470.72;5057555;28;20526;-49
2022/09/07 11:32:27;;;;;;;3.65;1.73;;;;;;;27.25;61.15;96462.25;5057400;28;20211;-50
2022/09/07 11:34:57;;;;;;;3.25;2.05;;;;;;;27.38;63.41;96471.94;5057531;28;20203;-50
2022/09/07 11:37:33;;;;;;;3.28;1.77;;;;;;;27.31;60.92;96464.00;5059878;28;20231;-49
2022/09/07 11:40:04;;;;;;;4.65;1.92;;;;;;;27.11;60.96;96455.56;5057380;28;20218;-50